createdAt,value
2019-03-17T00:00:43.425Z,99.90
2019-03-17T00:03:11.783Z,99.90
2019-03-17T00:05:40.138Z,99.90
2019-03-17T00:08:08.538Z,99.90
2019-03-17T00:10:36.940Z,99.90
2019-03-17T00:13:05.770Z,99.90
2019-03-17T00:15:34.071Z,99.90
2019-03-17T00:18:02.393Z,99.70
2019-03-17T00:20:30.773Z,99.60
2019-03-17T00:22:59.074Z,99.70
2019-03-17T00:25:27.455Z,99.70
2019-03-17T00:27:55.876Z,99.50
2019-03-17T00:30:24.327Z,99.50
2019-03-17T00:32:52.646Z,99.70
2019-03-17T00:35:20.937Z,99.70
2019-03-17T00:37:49.277Z,99.70
2019-03-17T00:40:17.590Z,99.60
2019-03-17T00:42:45.905Z,99.50
2019-03-17T00:45:14.285Z,99.60
2019-03-17T00:47:42.676Z,99.60
2019-03-17T00:50:11.476Z,99.70
2019-03-17T00:52:39.799Z,99.60
2019-03-17T00:55:08.150Z,99.60
2019-03-17T00:57:36.975Z,99.90
2019-03-17T01:00:05.593Z,99.50
2019-03-17T01:02:33.880Z,99.50
2019-03-17T01:05:02.351Z,99.60
2019-03-17T01:07:30.667Z,99.60
2019-03-17T01:09:59.073Z,99.70
2019-03-17T01:12:27.383Z,99.80
2019-03-17T01:14:55.759Z,99.80
2019-03-17T01:17:24.426Z,99.90
2019-03-17T01:19:52.742Z,99.90
2019-03-17T01:22:21.101Z,99.90
2019-03-17T01:24:49.395Z,99.90
2019-03-17T01:27:17.698Z,99.90
2019-03-17T01:29:46.055Z,99.90
2019-03-17T01:32:14.318Z,99.90
2019-03-17T01:34:42.672Z,99.90
2019-03-17T01:37:10.966Z,99.90
2019-03-17T01:39:39.307Z,99.90
2019-03-17T01:42:07.775Z,99.90
2019-03-17T01:44:36.141Z,99.90
2019-03-17T01:47:04.394Z,99.90
2019-03-17T01:49:32.706Z,99.90
2019-03-17T01:52:01.221Z,99.90
2019-03-17T01:54:29.837Z,99.90
2019-03-17T01:56:58.213Z,99.90
2019-03-17T01:59:26.499Z,99.90
2019-03-17T02:01:54.874Z,99.90
2019-03-17T02:04:23.133Z,99.90
2019-03-17T02:06:51.543Z,99.90
2019-03-17T02:09:19.809Z,99.90
2019-03-17T02:11:48.136Z,99.90
2019-03-17T02:14:16.433Z,99.90
2019-03-17T02:16:44.753Z,99.90
2019-03-17T02:19:13.064Z,99.90
2019-03-17T02:21:41.359Z,99.90
2019-03-17T02:24:09.609Z,99.90
2019-03-17T02:26:37.902Z,99.90
2019-03-17T02:29:06.506Z,99.90
2019-03-17T02:31:34.854Z,99.90
2019-03-17T02:34:03.291Z,99.90
2019-03-17T02:36:31.716Z,99.90
2019-03-17T02:39:00.415Z,99.90
2019-03-17T02:41:28.713Z,99.90
2019-03-17T02:43:57.147Z,99.90
2019-03-17T02:46:25.828Z,99.90
2019-03-17T02:48:54.142Z,99.90
2019-03-17T02:51:22.481Z,99.90
2019-03-17T02:53:50.734Z,99.90
2019-03-17T02:56:19.051Z,99.90
2019-03-17T02:58:47.341Z,99.90
2019-03-17T03:01:15.646Z,99.90
2019-03-17T03:03:44.835Z,99.90
2019-03-17T03:06:13.219Z,99.90
2019-03-17T03:08:41.551Z,99.90
2019-03-17T03:11:09.971Z,99.90
2019-03-17T03:13:38.271Z,99.90
2019-03-17T03:16:06.589Z,99.90
2019-03-17T03:18:36.079Z,99.90
2019-03-17T03:21:04.494Z,99.90
2019-03-17T03:23:32.799Z,99.80
2019-03-17T03:26:01.099Z,99.70
2019-03-17T03:28:29.339Z,99.60
2019-03-17T03:30:57.756Z,99.40
2019-03-17T03:33:26.051Z,99.40
2019-03-17T03:36:09.371Z,99.30
2019-03-17T03:38:24.329Z,99.30
2019-03-17T03:40:52.702Z,99.10
2019-03-17T03:43:20.984Z,99.10
2019-03-17T03:45:49.393Z,99.30
2019-03-17T03:48:17.672Z,99.20
2019-03-17T03:50:45.997Z,99.10
2019-03-17T03:53:14.266Z,99.00
2019-03-17T03:55:42.709Z,98.90
2019-03-17T03:58:10.936Z,98.90
2019-03-17T04:00:39.299Z,99.00
2019-03-17T04:03:07.574Z,98.90
2019-03-17T04:05:35.974Z,98.90
2019-03-17T04:08:04.298Z,98.90
2019-03-17T04:10:32.548Z,99.00
2019-03-17T04:13:00.897Z,98.80
2019-03-17T04:15:29.183Z,98.90
2019-03-17T04:17:57.574Z,99.00
2019-03-17T04:20:25.851Z,98.90
2019-03-17T04:22:54.526Z,99.00
2019-03-17T04:25:22.782Z,98.90
2019-03-17T04:27:51.080Z,98.70
2019-03-17T04:30:19.351Z,98.80
2019-03-17T04:32:47.659Z,98.80
2019-03-17T04:35:15.911Z,98.70
2019-03-17T04:37:44.307Z,98.70
2019-03-17T04:40:12.583Z,98.70
2019-03-17T04:42:40.891Z,98.70
2019-03-17T04:45:09.182Z,98.60
2019-03-17T04:47:37.626Z,98.70
2019-03-17T04:50:05.933Z,98.70
2019-03-17T04:52:34.315Z,98.60
2019-03-17T04:55:02.669Z,98.60
2019-03-17T04:57:30.986Z,98.50
2019-03-17T05:00:01.487Z,98.50
2019-03-17T05:02:29.791Z,98.50
2019-03-17T05:04:58.066Z,98.60
2019-03-17T05:07:26.383Z,98.70
2019-03-17T05:09:54.705Z,98.60
2019-03-17T05:12:22.998Z,98.50
2019-03-17T05:14:51.261Z,98.60
2019-03-17T05:17:19.535Z,98.50
2019-03-17T05:19:47.943Z,98.50
2019-03-17T05:22:16.225Z,98.40
2019-03-17T05:24:44.782Z,98.50
2019-03-17T05:27:13.691Z,98.60
2019-03-17T05:29:42.047Z,98.80
2019-03-17T05:32:10.335Z,98.70
2019-03-17T05:34:38.625Z,98.80
2019-03-17T05:37:07.135Z,98.90
2019-03-17T05:39:35.671Z,98.80
2019-03-17T05:42:04.423Z,98.80
2019-03-17T05:44:32.714Z,98.90
2019-03-17T05:47:00.998Z,99.10
2019-03-17T05:49:29.279Z,99.20
2019-03-17T05:51:57.539Z,99.30
2019-03-17T05:54:25.951Z,99.50
2019-03-17T05:56:54.227Z,99.80
2019-03-17T05:59:22.507Z,99.90
2019-03-17T06:01:50.798Z,99.90
2019-03-17T06:04:19.111Z,99.90
2019-03-17T06:06:47.360Z,99.90
2019-03-17T06:09:15.708Z,99.90
2019-03-17T06:11:44.376Z,99.90
2019-03-17T06:14:12.642Z,99.90
2019-03-17T06:16:40.995Z,99.90
2019-03-17T06:19:09.980Z,99.90
2019-03-17T06:21:39.504Z,99.90
2019-03-17T06:24:07.842Z,99.90
2019-03-17T06:26:36.153Z,99.90
2019-03-17T06:29:05.350Z,99.90
2019-03-17T06:31:34.417Z,99.90
2019-03-17T06:34:02.729Z,99.90
2019-03-17T06:36:31.031Z,99.90
2019-03-17T06:38:59.364Z,99.90
2019-03-17T06:41:28.462Z,99.90
2019-03-17T06:43:57.607Z,99.90
2019-03-17T06:46:25.968Z,99.90
2019-03-17T06:48:54.401Z,99.90
2019-03-17T06:51:22.705Z,99.90
2019-03-17T06:53:56.242Z,99.90
2019-03-17T06:56:21.125Z,99.90
2019-03-17T06:58:49.507Z,99.90
2019-03-17T07:01:18.727Z,99.90
2019-03-17T07:03:47.356Z,99.90
2019-03-17T07:06:15.609Z,99.90
2019-03-17T07:08:43.999Z,99.90
2019-03-17T07:11:12.342Z,99.90
2019-03-17T07:13:40.609Z,99.90
2019-03-17T07:16:08.943Z,99.90
2019-03-17T07:18:37.319Z,99.90
2019-03-17T07:21:05.908Z,99.90
2019-03-17T07:23:34.464Z,99.90
2019-03-17T07:26:02.983Z,99.90
2019-03-17T07:28:31.570Z,99.90
2019-03-17T07:30:59.900Z,99.90
2019-03-17T07:33:28.244Z,99.90
2019-03-17T07:35:56.563Z,99.90
2019-03-17T07:38:24.963Z,99.90
2019-03-17T07:40:53.427Z,99.90
2019-03-17T07:43:21.741Z,99.90
2019-03-17T07:45:50.059Z,99.90
2019-03-17T07:48:18.402Z,99.90
2019-03-17T07:50:46.772Z,99.90
2019-03-17T07:53:15.091Z,99.90
2019-03-17T07:55:43.366Z,99.90
2019-03-17T07:58:11.703Z,99.90
2019-03-17T08:00:39.987Z,99.90
2019-03-17T08:03:08.328Z,99.90
2019-03-17T08:05:36.632Z,99.90
2019-03-17T08:08:09.704Z,99.90
2019-03-17T08:10:34.980Z,99.90
2019-03-17T08:13:03.403Z,99.90
2019-03-17T08:15:31.697Z,99.90
2019-03-17T08:18:00.159Z,99.90
2019-03-17T08:20:28.506Z,99.90
2019-03-17T08:22:56.787Z,99.90
2019-03-17T08:25:25.126Z,99.90
2019-03-17T08:27:53.440Z,99.90
2019-03-17T08:30:21.807Z,99.90
2019-03-17T08:32:50.142Z,99.90
2019-03-17T08:35:18.527Z,99.90
2019-03-17T08:37:46.831Z,99.90
2019-03-17T08:40:15.223Z,99.90
2019-03-17T08:42:43.518Z,99.90
2019-03-17T08:45:11.997Z,99.90
2019-03-17T08:47:40.384Z,99.90
2019-03-17T08:50:08.972Z,99.90
2019-03-17T08:52:37.311Z,99.90
2019-03-17T08:55:05.764Z,99.90
2019-03-17T08:57:34.148Z,99.90
2019-03-17T09:00:02.495Z,99.90
2019-03-17T09:02:30.917Z,99.90
2019-03-17T09:04:59.266Z,99.90
2019-03-17T09:07:27.940Z,99.90
2019-03-17T09:09:56.756Z,99.90
2019-03-17T09:12:25.071Z,99.90
2019-03-17T09:14:53.528Z,99.90
2019-03-17T09:17:21.846Z,99.90
2019-03-17T09:19:50.208Z,99.90
2019-03-17T09:22:18.521Z,99.90
2019-03-17T09:24:46.873Z,99.90
2019-03-17T09:27:15.318Z,99.90
2019-03-17T09:29:43.609Z,99.90
2019-03-17T09:32:12.078Z,99.90
2019-03-17T09:34:41.517Z,99.90
2019-03-17T09:37:09.892Z,99.90
2019-03-17T09:39:38.259Z,99.90
2019-03-17T09:42:06.725Z,99.90
2019-03-17T09:44:36.124Z,99.90
2019-03-17T09:47:04.493Z,99.90
2019-03-17T09:49:33.241Z,99.90
2019-03-17T09:52:01.655Z,99.90
2019-03-17T09:54:30.088Z,99.90
2019-03-17T09:56:58.526Z,99.90
2019-03-17T09:59:27.003Z,99.90
2019-03-17T10:01:55.758Z,99.90
2019-03-17T10:04:24.134Z,99.90
2019-03-17T10:06:54.415Z,99.90
2019-03-17T10:09:22.776Z,99.90
2019-03-17T10:11:51.296Z,99.90
2019-03-17T10:14:19.615Z,99.90
2019-03-17T10:16:47.975Z,99.90
2019-03-17T10:19:16.306Z,99.90
2019-03-17T10:21:44.765Z,99.90
2019-03-17T10:24:13.162Z,99.90
2019-03-17T10:26:41.666Z,99.90
2019-03-17T10:29:10.075Z,99.90
2019-03-17T10:31:38.451Z,99.90
2019-03-17T10:34:06.887Z,99.90
2019-03-17T10:36:35.290Z,99.90
2019-03-17T10:39:12.303Z,99.90
2019-03-17T10:41:34.183Z,99.90
2019-03-17T10:44:02.925Z,99.90
2019-03-17T10:46:31.335Z,99.90
2019-03-17T10:48:59.810Z,99.90
2019-03-17T10:51:28.269Z,99.90
2019-03-17T10:53:56.716Z,99.90
2019-03-17T10:56:25.148Z,99.90
2019-03-17T10:58:53.516Z,99.90
2019-03-17T11:01:22.009Z,99.90
2019-03-17T11:03:50.434Z,99.90
2019-03-17T11:06:19.136Z,99.90
2019-03-17T11:08:47.459Z,99.90
2019-03-17T11:11:15.985Z,99.90
2019-03-17T11:13:44.406Z,99.90
2019-03-17T11:16:12.907Z,99.90
2019-03-17T11:18:41.359Z,99.90
2019-03-17T11:21:09.679Z,99.90
2019-03-17T11:23:38.139Z,99.90
2019-03-17T11:26:06.810Z,99.90
2019-03-17T11:28:35.142Z,99.80
2019-03-17T11:31:03.529Z,98.60
2019-03-17T11:33:32.001Z,97.80
2019-03-17T11:36:00.501Z,98.40
2019-03-17T11:38:29.144Z,97.80
2019-03-17T11:40:58.644Z,98.00
2019-03-17T11:43:26.997Z,98.40
2019-03-17T11:45:55.405Z,98.40
2019-03-17T11:48:24.126Z,99.00
2019-03-17T11:50:52.474Z,99.90
2019-03-17T11:53:20.860Z,99.90
2019-03-17T11:55:49.207Z,99.90
2019-03-17T11:58:17.640Z,99.90
2019-03-17T12:00:46.304Z,99.90
2019-03-17T12:03:16.222Z,99.90
2019-03-17T12:05:44.995Z,99.90
2019-03-17T12:08:13.471Z,99.90
2019-03-17T12:10:41.886Z,99.90
2019-03-17T12:13:10.372Z,99.90
2019-03-17T12:15:38.753Z,99.90
2019-03-17T12:18:07.541Z,99.90
2019-03-17T12:20:36.024Z,99.90
2019-03-17T12:23:04.397Z,99.90
2019-03-17T12:25:32.807Z,99.90
2019-03-17T12:28:01.309Z,99.90
2019-03-17T12:30:29.841Z,99.90
2019-03-17T12:32:58.332Z,99.90
2019-03-17T12:35:27.248Z,99.90
2019-03-17T12:37:55.842Z,99.90
2019-03-17T12:40:24.297Z,99.90
2019-03-17T12:42:53.118Z,99.90
2019-03-17T12:45:21.608Z,99.90
2019-03-17T12:47:50.046Z,99.90
2019-03-17T12:50:18.874Z,99.90
2019-03-17T12:52:47.416Z,99.80
2019-03-17T12:55:15.907Z,99.90
2019-03-17T12:57:44.697Z,99.90
2019-03-17T13:00:14.236Z,99.90
2019-03-17T13:02:42.771Z,99.90
2019-03-17T13:05:11.954Z,99.90
2019-03-17T13:07:41.701Z,99.90
2019-03-17T13:10:15.868Z,99.90
2019-03-17T13:12:41.871Z,99.90
2019-03-17T13:15:10.802Z,99.90
2019-03-17T13:17:41.962Z,99.90
2019-03-17T13:20:14.226Z,99.90
2019-03-17T13:22:45.245Z,99.90
2019-03-17T13:25:17.567Z,99.90
2019-03-17T13:27:52.509Z,99.90
2019-03-17T13:30:25.873Z,99.90
2019-03-17T13:33:08.543Z,99.90
2019-03-17T13:35:40.617Z,99.90
2019-03-17T13:38:15.104Z,99.90
2019-03-17T13:40:43.784Z,99.90
2019-03-17T13:43:12.221Z,99.90
2019-03-17T13:45:40.933Z,99.90
2019-03-17T13:48:09.397Z,99.90
2019-03-17T13:50:38.956Z,99.90
2019-03-17T13:53:07.619Z,99.90
2019-03-17T13:55:36.137Z,99.90
2019-03-17T13:58:04.777Z,99.10
2019-03-17T14:00:33.235Z,97.70
2019-03-17T14:03:01.757Z,97.90
2019-03-17T14:05:30.105Z,98.70
2019-03-17T14:07:58.720Z,98.40
2019-03-17T14:10:27.308Z,97.90
2019-03-17T14:12:55.721Z,97.00
2019-03-17T14:15:24.489Z,95.10
2019-03-17T14:17:53.135Z,93.70
2019-03-17T14:20:22.014Z,93.50
2019-03-17T14:22:50.760Z,91.00
2019-03-17T14:25:21.103Z,91.00
2019-03-17T14:27:49.590Z,91.10
2019-03-17T14:30:18.358Z,91.10
2019-03-17T14:32:46.820Z,90.00
2019-03-17T14:35:15.305Z,91.00
2019-03-17T14:37:43.878Z,89.60
2019-03-17T14:40:12.980Z,89.40
2019-03-17T14:42:41.367Z,90.00
2019-03-17T14:45:10.408Z,90.60
2019-03-17T14:47:38.914Z,90.80
2019-03-17T14:50:08.493Z,90.80
2019-03-17T14:52:37.116Z,91.40
2019-03-17T14:55:05.671Z,92.10
2019-03-17T14:57:34.245Z,91.50
2019-03-17T15:00:03.348Z,91.20
2019-03-17T15:02:32.001Z,91.30
2019-03-17T15:05:01.014Z,91.30
2019-03-17T15:07:29.525Z,90.90
2019-03-17T15:09:58.125Z,91.50
2019-03-17T15:12:26.757Z,91.30
2019-03-17T15:14:55.181Z,91.80
2019-03-17T15:17:23.816Z,91.90
2019-03-17T15:19:52.319Z,92.20
2019-03-17T15:22:21.023Z,93.20
2019-03-17T15:24:49.373Z,92.30
2019-03-17T15:27:17.783Z,92.60
2019-03-17T15:29:48.491Z,93.50
2019-03-17T15:32:16.979Z,93.00
2019-03-17T15:34:45.813Z,93.60
2019-03-17T15:37:15.545Z,93.10
2019-03-17T15:39:43.992Z,92.90
2019-03-17T15:42:12.479Z,93.60
2019-03-17T15:44:40.909Z,94.10
2019-03-17T15:47:09.364Z,94.80
2019-03-17T15:49:37.751Z,95.20
2019-03-17T15:52:06.300Z,95.40
2019-03-17T15:54:34.766Z,95.90
2019-03-17T15:57:03.442Z,96.80
2019-03-17T15:59:31.998Z,97.90
2019-03-17T16:02:00.581Z,99.00
2019-03-17T16:04:29.192Z,98.90
2019-03-17T16:06:57.764Z,98.70
2019-03-17T16:09:28.479Z,98.40
2019-03-17T16:11:56.460Z,97.70
2019-03-17T16:14:24.956Z,97.60
2019-03-17T16:16:53.343Z,97.00
2019-03-17T16:19:22.629Z,97.60
2019-03-17T16:21:51.094Z,97.10
2019-03-17T16:24:19.800Z,96.90
2019-03-17T16:26:48.205Z,97.10
2019-03-17T16:29:16.652Z,96.70
2019-03-17T16:31:45.437Z,96.50
2019-03-17T16:34:13.922Z,96.70
2019-03-17T16:36:42.624Z,96.50
2019-03-17T16:39:11.164Z,96.70
2019-03-17T16:41:43.599Z,97.00
2019-03-17T16:44:10.440Z,96.50
2019-03-17T16:46:38.904Z,96.80
2019-03-17T16:49:07.355Z,96.50
2019-03-17T16:51:35.745Z,96.70
2019-03-17T16:54:04.332Z,96.80
2019-03-17T16:56:32.792Z,96.90
2019-03-17T16:59:01.600Z,97.00
2019-03-17T17:01:30.188Z,97.30
2019-03-17T17:03:58.683Z,97.20
2019-03-17T17:06:27.168Z,97.80
2019-03-17T17:08:55.801Z,98.30
2019-03-17T17:11:24.285Z,98.10
2019-03-17T17:13:52.727Z,98.10
2019-03-17T17:16:21.236Z,98.00
2019-03-17T17:18:50.197Z,98.00
2019-03-17T17:21:18.915Z,97.70
2019-03-17T17:23:47.669Z,97.70
2019-03-17T17:26:16.137Z,97.70
2019-03-17T17:28:44.624Z,98.00
2019-03-17T17:31:13.541Z,97.30
2019-03-17T17:33:41.948Z,97.60
2019-03-17T17:36:10.413Z,98.00
2019-03-17T17:38:39.099Z,97.80
2019-03-17T17:41:11.007Z,97.60
2019-03-17T17:43:38.249Z,98.00
2019-03-17T17:46:06.751Z,98.00
2019-03-17T17:48:35.351Z,98.40
2019-03-17T17:51:03.959Z,97.90
2019-03-17T17:53:32.481Z,98.90
2019-03-17T17:56:01.040Z,99.40
2019-03-17T17:58:29.937Z,99.90
2019-03-17T18:00:58.531Z,99.90
2019-03-17T18:03:27.190Z,99.90
2019-03-17T18:05:55.921Z,99.90
2019-03-17T18:08:24.440Z,99.90
2019-03-17T18:10:52.899Z,99.90
2019-03-17T18:13:21.797Z,99.90
2019-03-17T18:15:50.485Z,99.90
2019-03-17T18:18:19.429Z,99.90
2019-03-17T18:20:48.324Z,99.90
2019-03-17T18:23:18.265Z,99.90
2019-03-17T18:25:47.261Z,99.90
2019-03-17T18:28:16.095Z,99.90
2019-03-17T18:30:44.945Z,99.90
2019-03-17T18:33:13.447Z,99.90
2019-03-17T18:35:42.255Z,99.90
2019-03-17T18:38:10.853Z,99.90
2019-03-17T18:40:42.175Z,99.90
2019-03-17T18:43:09.634Z,99.90
2019-03-17T18:45:38.141Z,99.90
2019-03-17T18:48:06.913Z,99.90
2019-03-17T18:50:38.033Z,99.90
2019-03-17T18:53:09.447Z,99.90
2019-03-17T18:55:42.477Z,99.90
2019-03-17T18:58:12.854Z,99.90
2019-03-17T19:00:41.352Z,99.90
2019-03-17T19:03:10.430Z,99.90
2019-03-17T19:05:39.024Z,99.90
2019-03-17T19:08:07.656Z,99.90
2019-03-17T19:10:36.489Z,99.90
2019-03-17T19:13:05.264Z,99.90
2019-03-17T19:15:33.909Z,99.90
2019-03-17T19:18:02.525Z,99.90
2019-03-17T19:20:31.115Z,99.90
2019-03-17T19:22:59.982Z,99.90
2019-03-17T19:25:28.588Z,99.90
2019-03-17T19:27:57.264Z,99.90
2019-03-17T19:30:28.115Z,99.90
2019-03-17T19:32:56.800Z,99.90
2019-03-17T19:35:25.815Z,99.90
2019-03-17T19:37:54.352Z,99.90
2019-03-17T19:40:22.979Z,99.90
2019-03-17T19:42:58.734Z,99.90
2019-03-17T19:45:21.930Z,99.90
2019-03-17T19:47:50.609Z,99.90
2019-03-17T19:50:19.188Z,99.90
2019-03-17T19:52:47.722Z,99.90
2019-03-17T19:55:16.515Z,99.90
2019-03-17T19:57:45.463Z,99.90
2019-03-17T20:00:15.302Z,99.90
2019-03-17T20:02:46.986Z,99.90
2019-03-17T20:05:14.778Z,99.90
2019-03-17T20:07:43.261Z,99.90
2019-03-17T20:10:12.857Z,99.90
2019-03-17T20:12:41.546Z,99.90
2019-03-17T20:15:10.109Z,99.90
2019-03-17T20:17:38.765Z,99.90
2019-03-17T20:20:08.148Z,99.90
2019-03-17T20:22:36.642Z,99.90
2019-03-17T20:25:05.132Z,99.90
2019-03-17T20:27:33.869Z,99.90
2019-03-17T20:30:02.673Z,99.90
2019-03-17T20:32:31.087Z,99.90
2019-03-17T20:34:59.668Z,99.90
2019-03-17T20:37:28.235Z,99.90
2019-03-17T20:39:57.014Z,99.90
2019-03-17T20:42:29.153Z,99.90
2019-03-17T20:44:57.623Z,99.90
2019-03-17T20:47:26.148Z,99.90
2019-03-17T20:49:55.491Z,99.90
2019-03-17T20:52:25.206Z,99.90
2019-03-17T20:54:54.224Z,99.90
2019-03-17T20:57:22.801Z,99.90
2019-03-17T20:59:51.234Z,99.90
2019-03-17T21:02:20.984Z,99.90
2019-03-17T21:04:50.742Z,99.90
2019-03-17T21:07:19.769Z,99.90
2019-03-17T21:09:48.349Z,99.90
2019-03-17T21:12:16.987Z,99.90
2019-03-17T21:14:45.681Z,99.90
2019-03-17T21:17:14.309Z,99.90
2019-03-17T21:19:42.897Z,99.90
2019-03-17T21:22:11.431Z,99.90
2019-03-17T21:24:39.893Z,99.90
2019-03-17T21:27:08.266Z,99.90
2019-03-17T21:29:37.178Z,99.90
2019-03-17T21:32:05.975Z,99.90
2019-03-17T21:34:34.428Z,99.90
2019-03-17T21:37:03.250Z,99.90
2019-03-17T21:39:31.595Z,99.90
2019-03-17T21:42:00.054Z,99.90
2019-03-17T21:44:28.614Z,99.90
2019-03-17T21:46:57.435Z,99.90
2019-03-17T21:49:25.841Z,99.90
2019-03-17T21:51:54.416Z,99.90
2019-03-17T21:54:23.737Z,99.90
2019-03-17T21:56:52.163Z,99.90
2019-03-17T21:59:20.538Z,99.90
2019-03-17T22:01:48.978Z,99.90
2019-03-17T22:04:17.381Z,99.90
2019-03-17T22:06:45.739Z,99.90
2019-03-17T22:09:17.107Z,99.90
2019-03-17T22:11:44.279Z,99.90
2019-03-17T22:14:12.769Z,99.90
2019-03-17T22:16:41.259Z,99.90
2019-03-17T22:19:09.668Z,99.90
2019-03-17T22:21:38.078Z,99.90
2019-03-17T22:24:06.382Z,99.90
2019-03-17T22:26:34.818Z,99.90
2019-03-17T22:29:03.308Z,99.90
2019-03-17T22:31:31.693Z,99.90
2019-03-17T22:34:00.177Z,99.90
2019-03-17T22:36:29.009Z,99.90
2019-03-17T22:38:57.427Z,99.90
2019-03-17T22:41:25.830Z,99.90
2019-03-17T22:43:55.195Z,99.90
2019-03-17T22:46:23.822Z,99.90
2019-03-17T22:48:52.159Z,99.90
2019-03-17T22:51:20.496Z,99.90
2019-03-17T22:53:48.816Z,99.90
2019-03-17T22:56:17.194Z,99.90
2019-03-17T22:58:45.643Z,99.90
2019-03-17T23:01:14.055Z,99.90
2019-03-17T23:03:42.393Z,99.90
2019-03-17T23:06:10.751Z,99.90
2019-03-17T23:08:39.107Z,99.90
2019-03-17T23:11:07.524Z,99.90
2019-03-17T23:13:35.955Z,99.90
2019-03-17T23:16:04.269Z,99.90
2019-03-17T23:18:32.939Z,99.90
2019-03-17T23:21:01.258Z,99.90
2019-03-17T23:23:29.570Z,99.90
2019-03-17T23:25:57.987Z,99.90
2019-03-17T23:28:26.659Z,99.90
2019-03-17T23:30:55.126Z,99.90
2019-03-17T23:33:23.509Z,99.90
2019-03-17T23:35:52.040Z,99.90
2019-03-17T23:38:20.306Z,99.90
2019-03-17T23:40:48.617Z,99.90
2019-03-17T23:43:17.140Z,99.90
2019-03-17T23:45:45.422Z,99.90
2019-03-17T23:48:13.746Z,99.90
2019-03-17T23:50:43.748Z,99.90
2019-03-17T23:53:12.083Z,99.90
2019-03-17T23:55:40.337Z,99.90
2019-03-17T23:58:08.690Z,99.90
